Time;durP1;ratioP1;P1;durP2;ratioP2;P2;SDS_P1;SDS_P2;PMS_P1;PMS_P2;Temp;Humidity;BMP_temperature;BMP_pressure;BME280_temperature;BME280_humidity;BME280_pressure;Samples;Min_cycle;Max_cycle;Signal;HPM_P1;HPM_P2
2021/05/23 00:01:32;;;;;;;11.82;3.80;;;;;;;;;;4991475;28;20109;-68
2021/05/23 00:03:59;;;;;;;5.97;3.20;;;;;;;;;;4992112;28;20487;-68
2021/05/23 00:06:27;;;;;;;10.05;4.00;;;;;;;;;;4991443;28;20037;-68
2021/05/23 00:08:54;;;;;;;8.35;3.28;;;;;;;;;;4992485;28;20026;-68
2021/05/23 00:11:21;;;;;;;9.02;4.10;;;;;;;;;;4991723;28;20104;-68
2021/05/23 00:13:49;;;;;;;9.40;4.32;;;;;;;;;;4992319;28;20019;-68
2021/05/23 00:16:17;;;;;;;9.73;5.13;;;;;;;;;;4992107;28;20093;-68
2021/05/23 00:18:46;;;;;;;12.65;5.75;;;;;;;;;;4988647;28;20053;-68
2021/05/23 00:21:14;;;;;;;15.25;6.68;;;;;;;;;;4990282;28;20035;-69
2021/05/23 00:23:41;;;;;;;9.20;4.53;;;;;;;;;;4990433;28;20050;-68
2021/05/23 00:26:08;;;;;;;9.05;3.85;;;;;;;;;;4991328;28;20383;-68
2021/05/23 00:28:36;;;;;;;10.18;4.20;;;;;;;;;;4990454;28;20042;-68
2021/05/23 00:31:04;;;;;;;6.88;3.30;;;;;;;;;;4989684;28;20032;-68
2021/05/23 00:33:31;;;;;;;9.02;3.78;;;;;;;;;;4991822;28;20027;-68
2021/05/23 00:35:58;;;;;;;7.85;3.90;;;;;;;;;;4991769;28;20053;-68
2021/05/23 00:38:25;;;;;;;8.27;3.08;;;;;;;;;;4992322;28;20137;-69
2021/05/23 00:40:52;;;;;;;7.97;3.20;;;;;;;;;;4989484;28;20048;-68
2021/05/23 00:43:21;;;;;;;13.32;3.88;;;;;;;;;;4991101;28;20018;-68
2021/05/23 00:45:49;;;;;;;5.53;3.10;;;;;;;;;;4990823;28;20053;-69
2021/05/23 00:48:17;;;;;;;9.93;3.20;;;;;;;;;;4990679;28;20018;-69
2021/05/23 00:50:44;;;;;;;8.88;3.10;;;;;;;;;;4990605;28;20109;-68
2021/05/23 00:53:12;;;;;;;38.22;7.72;;;;;;;;;;4993173;28;20031;-68
2021/05/23 00:55:39;;;;;;;6.72;3.25;;;;;;;;;;4986784;28;20019;-70
2021/05/23 00:58:07;;;;;;;6.00;3.00;;;;;;;;;;4994434;28;20030;-69
2021/05/23 01:00:34;;;;;;;9.48;3.60;;;;;;;;;;4993979;28;20529;-70
2021/05/23 01:03:01;;;;;;;7.35;3.55;;;;;;;;;;4994093;28;20045;-70
2021/05/23 01:05:29;;;;;;;13.18;5.88;;;;;;;;;;4993647;28;20030;-69
2021/05/23 01:07:56;;;;;;;8.18;3.40;;;;;;;;;;4989320;28;20023;-69
2021/05/23 01:10:26;;;;;;;5.55;3.72;;;;;;;;;;4994079;28;20742;-70
2021/05/23 01:12:53;;;;;;;7.82;3.17;;;;;;;;;;4994376;28;20030;-70
2021/05/23 01:15:31;;;;;;;6.22;3.15;;;;;;;;;;4993812;28;20033;-70
2021/05/23 01:18:07;;;;;;;6.75;3.42;;;;;;;;;;4990627;28;20026;-70
2021/05/23 01:20:52;;;;;;;7.53;2.75;;;;;;;;;;4993625;28;20053;-69
2021/05/23 01:23:25;;;;;;;6.03;2.65;;;;;;;;;;4983953;28;20399;-70
2021/05/23 01:25:55;;;;;;;6.68;2.30;;;;;;;;;;4992396;28;20105;-69
2021/05/23 01:28:23;;;;;;;9.85;3.22;;;;;;;;;;4991825;28;20030;-70
2021/05/23 01:30:51;;;;;;;4.72;2.22;;;;;;;;;;4991405;28;20038;-70
2021/05/23 01:33:20;;;;;;;6.72;2.55;;;;;;;;;;4987827;28;20133;-69
2021/05/23 01:35:51;;;;;;;8.05;2.72;;;;;;;;;;4993450;28;20054;-70
2021/05/23 01:38:20;;;;;;;7.30;2.25;;;;;;;;;;4987651;28;20019;-70
2021/05/23 01:40:51;;;;;;;5.65;2.55;;;;;;;;;;4992723;28;20054;-70
2021/05/23 01:43:19;;;;;;;6.57;2.40;;;;;;;;;;4992091;28;20454;-70
2021/05/23 01:45:46;;;;;;;6.45;2.67;;;;;;;;;;4993910;28;20111;-70
2021/05/23 01:48:13;;;;;;;4.00;2.00;;;;;;;;;;4994108;28;20055;-70
2021/05/23 01:50:41;;;;;;;6.68;2.35;;;;;;;;;;4992438;28;20041;-71
2021/05/23 01:53:09;;;;;;;13.07;3.25;;;;;;;;;;4993378;28;20030;-72
2021/05/23 01:55:36;;;;;;;6.93;2.25;;;;;;;;;;4994029;28;20105;-70
2021/05/23 01:58:04;;;;;;;6.90;2.95;;;;;;;;;;4992856;28;20113;-71
2021/05/23 02:00:36;;;;;;;5.10;2.08;;;;;;;;;;4991852;28;20030;-71
2021/05/23 02:03:07;;;;;;;6.32;2.47;;;;;;;;;;4992445;28;20026;-71
2021/05/23 02:05:36;;;;;;;6.35;3.10;;;;;;;;;;4993822;28;20026;-71
2021/05/23 02:08:04;;;;;;;7.88;2.35;;;;;;;;;;4991048;28;20061;-71
2021/05/23 02:10:31;;;;;;;5.93;2.15;;;;;;;;;;4990516;28;20026;-72
2021/05/23 02:13:04;;;;;;;6.88;2.05;;;;;;;;;;4991485;28;20518;-71
2021/05/23 02:15:31;;;;;;;5.80;2.42;;;;;;;;;;4992652;28;20069;-71
2021/05/23 02:17:58;;;;;;;9.02;1.90;;;;;;;;;;4973573;28;20037;-70
2021/05/23 02:20:30;;;;;;;6.43;1.40;;;;;;;;;;4976204;28;20033;-70
2021/05/23 02:22:58;;;;;;;7.45;1.20;;;;;;;;;;4992652;28;20509;-70
2021/05/23 02:25:26;;;;;;;7.65;1.75;;;;;;;;;;4974674;28;20025;-70
2021/05/23 02:27:54;;;;;;;8.02;1.30;;;;;;;;;;4990892;28;20031;-71
2021/05/23 02:30:25;;;;;;;6.53;1.80;;;;;;;;;;4989148;28;20501;-70
2021/05/23 02:32:52;;;;;;;7.68;2.00;;;;;;;;;;4993017;28;20034;-71
2021/05/23 02:35:20;;;;;;;9.82;1.70;;;;;;;;;;4980507;28;20391;-70
2021/05/23 02:37:47;;;;;;;8.07;1.40;;;;;;;;;;4974469;28;20027;-70
2021/05/23 02:40:15;;;;;;;10.85;1.92;;;;;;;;;;4974541;28;20030;-70
2021/05/23 02:42:43;;;;;;;11.00;2.10;;;;;;;;;;4979147;28;20022;-70
2021/05/23 02:45:12;;;;;;;8.90;1.20;;;;;;;;;;4993861;28;20030;-70
2021/05/23 02:47:39;;;;;;;6.13;0.82;;;;;;;;;;4993768;28;20014;-71
2021/05/23 02:50:08;;;;;;;5.68;1.20;;;;;;;;;;4976090;28;20534;-71
2021/05/23 02:52:36;;;;;;;4.70;0.98;;;;;;;;;;4993519;28;20045;-70
2021/05/23 02:55:05;;;;;;;5.68;0.70;;;;;;;;;;4993522;28;20252;-70
2021/05/23 02:57:33;;;;;;;5.53;1.05;;;;;;;;;;4993555;28;20022;-70
2021/05/23 03:00:00;;;;;;;7.78;1.83;;;;;;;;;;4993284;28;20026;-71
2021/05/23 03:02:27;;;;;;;6.43;1.10;;;;;;;;;;4976007;28;20034;-70
2021/05/23 03:04:54;;;;;;;8.52;1.13;;;;;;;;;;4990097;28;20030;-70
2021/05/23 03:07:24;;;;;;;5.93;1.60;;;;;;;;;;4988397;28;20019;-70
2021/05/23 03:09:51;;;;;;;10.32;1.77;;;;;;;;;;4993166;28;20336;-70
2021/05/23 03:12:19;;;;;;;5.22;0.82;;;;;;;;;;4993347;28;20029;-70
2021/05/23 03:14:46;;;;;;;7.28;0.70;;;;;;;;;;4992749;28;20025;-71
2021/05/23 03:17:13;;;;;;;8.15;1.17;;;;;;;;;;4992947;28;20029;-70
2021/05/23 03:19:40;;;;;;;4.43;1.20;;;;;;;;;;4993194;28;20018;-71
2021/05/23 03:22:08;;;;;;;4.90;1.05;;;;;;;;;;4992975;28;20031;-70
2021/05/23 03:24:35;;;;;;;5.00;0.70;;;;;;;;;;4993097;28;20360;-70
2021/05/23 03:27:02;;;;;;;7.43;1.00;;;;;;;;;;4987806;28;20430;-70
2021/05/23 03:29:29;;;;;;;5.95;0.95;;;;;;;;;;4993388;28;20531;-71
2021/05/23 03:31:57;;;;;;;3.80;0.70;;;;;;;;;;4988831;28;20031;-71
2021/05/23 03:34:24;;;;;;;5.65;0.80;;;;;;;;;;4974542;28;20034;-70
2021/05/23 03:36:51;;;;;;;4.80;1.50;;;;;;;;;;4990940;28;20150;-71
2021/05/23 03:39:18;;;;;;;1.92;0.60;;;;;;;;;;4993170;28;20488;-70
2021/05/23 03:41:45;;;;;;;7.20;0.80;;;;;;;;;;4991348;28;20054;-71
2021/05/23 03:44:12;;;;;;;4.38;0.88;;;;;;;;;;4993086;28;20050;-71
2021/05/23 03:46:40;;;;;;;9.40;1.88;;;;;;;;;;4988762;28;20022;-71
2021/05/23 03:49:07;;;;;;;5.30;0.60;;;;;;;;;;4992992;28;20058;-71
2021/05/23 03:51:34;;;;;;;5.45;0.85;;;;;;;;;;4991557;28;20030;-71
2021/05/23 03:54:01;;;;;;;4.85;0.70;;;;;;;;;;4992650;28;20030;-71
2021/05/23 03:56:28;;;;;;;4.72;1.05;;;;;;;;;;4974845;28;20033;-70
2021/05/23 03:58:55;;;;;;;5.32;0.90;;;;;;;;;;4992178;28;20479;-70
2021/05/23 04:01:22;;;;;;;3.55;0.47;;;;;;;;;;4988186;28;20026;-71
2021/05/23 04:03:55;;;;;;;6.60;1.02;;;;;;;;;;4988101;28;20438;-71
2021/05/23 04:06:22;;;;;;;5.57;1.10;;;;;;;;;;4991730;28;20023;-71
2021/05/23 04:08:49;;;;;;;6.15;0.95;;;;;;;;;;4990048;28;20138;-71
2021/05/23 04:11:23;;;;;;;5.40;0.77;;;;;;;;;;4991483;28;20034;-72
2021/05/23 04:13:50;;;;;;;;;;;;;;;;;;4990216;28;20387;-71
2021/05/23 04:16:17;;;;;;;6.30;1.02;;;;;;;;;;4992105;28;20361;-72
2021/05/23 04:18:45;;;;;;;6.43;1.00;;;;;;;;;;4990963;28;20050;-72
2021/05/23 04:21:12;;;;;;;6.47;1.30;;;;;;;;;;4992832;28;20379;-72
2021/05/23 04:23:39;;;;;;;6.90;0.77;;;;;;;;;;4991151;28;20479;-71
2021/05/23 04:26:06;;;;;;;6.32;0.70;;;;;;;;;;4988626;28;20027;-71
2021/05/23 04:28:33;;;;;;;7.32;1.02;;;;;;;;;;4993194;28;20029;-72
2021/05/23 04:31:00;;;;;;;7.95;0.95;;;;;;;;;;4978204;28;20034;-71
2021/05/23 04:33:28;;;;;;;6.28;1.08;;;;;;;;;;4991723;28;20501;-72
2021/05/23 04:35:55;;;;;;;5.53;1.02;;;;;;;;;;4978380;28;20046;-71
2021/05/23 04:38:22;;;;;;;5.15;0.70;;;;;;;;;;4990761;28;20030;-72
2021/05/23 04:40:49;;;;;;;4.57;1.40;;;;;;;;;;4996234;28;20026;-72
2021/05/23 04:43:16;;;;;;;8.38;0.80;;;;;;;;;;4990031;28;20473;-72
2021/05/23 04:45:43;;;;;;;5.65;0.60;;;;;;;;;;4992772;28;20117;-72
2021/05/23 04:48:11;;;;;;;7.85;1.25;;;;;;;;;;4989821;28;20027;-71
2021/05/23 04:50:38;;;;;;;5.30;0.75;;;;;;;;;;4991315;28;20057;-72
2021/05/23 04:53:06;;;;;;;5.25;1.33;;;;;;;;;;4990500;28;20109;-73
2021/05/23 04:55:33;;;;;;;3.58;0.63;;;;;;;;;;4992279;28;20479;-72
2021/05/23 04:58:00;;;;;;;9.40;0.88;;;;;;;;;;4975230;28;20479;-72
2021/05/23 05:00:27;;;;;;;5.47;0.73;;;;;;;;;;4991677;28;20022;-72
2021/05/23 05:02:55;;;;;;;7.15;0.65;;;;;;;;;;4987425;28;20494;-72
2021/05/23 05:05:22;;;;;;;5.30;0.93;;;;;;;;;;4994452;28;20038;-72
2021/05/23 05:07:50;;;;;;;5.57;0.52;;;;;;;;;;4974917;28;20096;-71
2021/05/23 05:10:17;;;;;;;6.97;1.40;;;;;;;;;;4993719;28;20101;-72
2021/05/23 05:12:44;;;;;;;5.75;0.82;;;;;;;;;;4988704;28;20030;-73
2021/05/23 05:15:11;;;;;;;3.05;0.52;;;;;;;;;;4990432;28;20027;-72
2021/05/23 05:17:38;;;;;;;7.03;1.00;;;;;;;;;;4989259;28;20053;-71
2021/05/23 05:20:06;;;;;;;4.65;0.80;;;;;;;;;;4975216;28;20034;-72
2021/05/23 05:22:34;;;;;;;7.50;0.93;;;;;;;;;;4987667;28;20117;-71
2021/05/23 05:25:01;;;;;;;8.45;1.58;;;;;;;;;;4991975;28;20026;-70
2021/05/23 05:27:28;;;;;;;5.22;0.60;;;;;;;;;;4988501;28;20023;-71
2021/05/23 05:29:55;;;;;;;4.47;0.75;;;;;;;;;;4992166;28;20571;-72
2021/05/23 05:32:23;;;;;;;7.65;0.82;;;;;;;;;;4989230;28;20035;-71
2021/05/23 05:34:50;;;;;;;5.80;1.30;;;;;;;;;;4992669;28;20030;-71
2021/05/23 05:37:17;;;;;;;5.97;0.95;;;;;;;;;;4990792;28;20046;-71
2021/05/23 05:39:44;;;;;;;6.93;0.50;;;;;;;;;;4990609;28;20026;-71
2021/05/23 05:42:11;;;;;;;3.92;0.65;;;;;;;;;;4988671;28;20584;-71
2021/05/23 05:44:38;;;;;;;5.47;0.70;;;;;;;;;;4990948;28;20318;-71
2021/05/23 05:47:05;;;;;;;5.22;0.65;;;;;;;;;;4989152;28;20026;-71
2021/05/23 05:49:36;;;;;;;4.15;0.47;;;;;;;;;;4992023;28;20050;-72
2021/05/23 05:52:04;;;;;;;3.17;0.60;;;;;;;;;;4989338;28;20026;-71
2021/05/23 05:54:31;;;;;;;3.85;0.60;;;;;;;;;;4983832;28;20062;-71
2021/05/23 05:57:00;;;;;;;9.73;1.50;;;;;;;;;;4984125;28;20110;-71
2021/05/23 05:59:27;;;;;;;3.15;0.68;;;;;;;;;;4991565;28;20026;-71
2021/05/23 06:01:54;;;;;;;5.03;1.35;;;;;;;;;;4990393;28;20077;-71
2021/05/23 06:04:21;;;;;;;5.30;1.10;;;;;;;;;;4992928;28;20499;-71
2021/05/23 06:06:48;;;;;;;4.15;0.52;;;;;;;;;;4991523;28;20045;-71
2021/05/23 06:09:15;;;;;;;10.55;1.17;;;;;;;;;;4992432;28;20077;-70
2021/05/23 06:11:42;;;;;;;4.07;0.52;;;;;;;;;;4992299;28;20049;-71
2021/05/23 06:14:10;;;;;;;3.72;0.50;;;;;;;;;;4991712;28;20023;-71
2021/05/23 06:16:37;;;;;;;7.13;0.85;;;;;;;;;;4993001;28;20379;-71
2021/05/23 06:19:05;;;;;;;8.82;0.70;;;;;;;;;;4991671;28;20029;-71
2021/05/23 06:21:32;;;;;;;4.43;0.73;;;;;;;;;;4991655;28;20029;-71
2021/05/23 06:23:59;;;;;;;6.93;0.80;;;;;;;;;;4969584;28;20034;-71
2021/05/23 06:26:26;;;;;;;4.47;0.70;;;;;;;;;;4988220;28;20046;-71
2021/05/23 06:28:54;;;;;;;4.53;0.90;;;;;;;;;;4988544;28;20468;-71
2021/05/23 06:31:22;;;;;;;4.13;0.63;;;;;;;;;;4991370;28;20157;-72
2021/05/23 06:33:49;;;;;;;6.15;1.17;;;;;;;;;;4992784;28;20026;-72
2021/05/23 06:36:16;;;;;;;6.97;1.17;;;;;;;;;;4993009;28;20054;-72
2021/05/23 06:38:44;;;;;;;6.45;1.27;;;;;;;;;;4990492;28;20383;-70
2021/05/23 06:41:11;;;;;;;5.30;0.93;;;;;;;;;;4984854;28;20026;-72
2021/05/23 06:43:38;;;;;;;5.47;1.30;;;;;;;;;;4989754;28;20033;-72
2021/05/23 06:46:05;;;;;;;6.57;0.60;;;;;;;;;;4991035;28;20058;-72
2021/05/23 06:48:32;;;;;;;4.15;0.80;;;;;;;;;;4990981;28;20093;-72
2021/05/23 06:51:00;;;;;;;6.18;0.73;;;;;;;;;;4991809;28;20049;-72
2021/05/23 06:53:27;;;;;;;6.93;0.80;;;;;;;;;;4991354;28;20092;-71
2021/05/23 06:55:54;;;;;;;4.82;0.70;;;;;;;;;;4991812;28;20029;-73
2021/05/23 06:58:21;;;;;;;2.85;0.57;;;;;;;;;;4990304;28;20471;-72
2021/05/23 07:00:48;;;;;;;7.60;0.80;;;;;;;;;;4989843;28;20113;-73
2021/05/23 07:03:15;;;;;;;5.75;0.70;;;;;;;;;;4991669;28;20027;-73
2021/05/23 07:05:42;;;;;;;6.45;0.60;;;;;;;;;;4991477;28;20026;-73
2021/05/23 07:08:09;;;;;;;7.53;0.85;;;;;;;;;;4973230;28;20038;-72
2021/05/23 07:10:36;;;;;;;12.02;1.75;;;;;;;;;;4974071;28;20494;-72
2021/05/23 07:13:04;;;;;;;52.35;22.77;;;;;;;;;;4991223;28;20093;-72
2021/05/23 07:15:31;;;;;;;53.28;37.45;;;;;;;;;;4990089;28;20025;-72
2021/05/23 07:17:58;;;;;;;110.47;71.15;;;;;;;;;;4987634;28;20031;-72
2021/05/23 07:20:26;;;;;;;16.83;10.00;;;;;;;;;;4992056;28;20383;-73
2021/05/23 07:22:54;;;;;;;14.38;7.43;;;;;;;;;;4986559;28;20026;-73
2021/05/23 07:25:22;;;;;;;13.82;4.90;;;;;;;;;;4989126;28;20501;-73
2021/05/23 07:27:49;;;;;;;12.43;5.22;;;;;;;;;;4990199;28;20479;-73
2021/05/23 07:30:16;;;;;;;13.00;4.18;;;;;;;;;;4991038;28;20487;-73
2021/05/23 07:32:43;;;;;;;70.88;40.25;;;;;;;;;;4989098;28;20040;-72
2021/05/23 07:35:10;;;;;;;27.35;17.70;;;;;;;;;;4990266;28;20026;-73
2021/05/23 07:37:37;;;;;;;13.98;6.07;;;;;;;;;;4988037;28;20070;-73
2021/05/23 07:40:05;;;;;;;13.73;7.60;;;;;;;;;;4990755;28;20411;-73
2021/05/23 07:42:32;;;;;;;32.03;24.73;;;;;;;;;;4989317;28;20089;-73
2021/05/23 07:45:00;;;;;;;41.47;34.45;;;;;;;;;;4988340;28;20034;-73
2021/05/23 07:47:27;;;;;;;23.55;15.60;;;;;;;;;;4989635;28;20031;-73
2021/05/23 07:49:54;;;;;;;15.63;9.60;;;;;;;;;;4989436;28;20029;-73
2021/05/23 07:52:21;;;;;;;17.92;9.68;;;;;;;;;;4988981;28;20026;-73
2021/05/23 07:54:48;;;;;;;17.17;10.88;;;;;;;;;;4988606;28;20018;-73
2021/05/23 07:57:15;;;;;;;21.33;12.23;;;;;;;;;;4989291;28;20041;-73
2021/05/23 07:59:42;;;;;;;17.95;10.00;;;;;;;;;;4990403;28;20030;-72
2021/05/23 08:02:10;;;;;;;17.92;9.55;;;;;;;;;;4989941;28;20372;-73
2021/05/23 08:04:37;;;;;;;14.43;6.88;;;;;;;;;;4994979;28;20030;-73
2021/05/23 08:07:04;;;;;;;13.75;7.93;;;;;;;;;;4992104;28;20033;-73
2021/05/23 08:09:31;;;;;;;12.77;6.57;;;;;;;;;;4993375;28;20030;-72
2021/05/23 08:11:58;;;;;;;14.68;7.28;;;;;;;;;;4989981;28;20486;-73
2021/05/23 08:14:25;;;;;;;17.58;9.90;;;;;;;;;;4993843;28;20038;-73
2021/05/23 08:16:53;;;;;;;10.27;4.70;;;;;;;;;;4990912;28;21850;-73
2021/05/23 08:19:20;;;;;;;13.77;6.68;;;;;;;;;;4994839;28;20027;-74
2021/05/23 08:21:47;;;;;;;16.63;10.18;;;;;;;;;;4994753;28;20034;-72
2021/05/23 08:24:14;;;;;;;14.30;6.93;;;;;;;;;;4995788;28;20387;-74
2021/05/23 08:26:41;;;;;;;23.58;12.88;;;;;;;;;;4994404;28;20025;-73
2021/05/23 08:29:09;;;;;;;17.90;8.18;;;;;;;;;;4992209;28;20391;-72
2021/05/23 08:31:36;;;;;;;16.05;7.75;;;;;;;;;;4994751;28;20035;-72
2021/05/23 08:34:03;;;;;;;22.15;9.43;;;;;;;;;;4995477;28;20112;-71
2021/05/23 08:36:31;;;;;;;14.38;7.07;;;;;;;;;;4994369;28;20181;-71
2021/05/23 08:38:58;;;;;;;15.80;5.28;;;;;;;;;;4994650;28;20109;-72
2021/05/23 08:41:25;;;;;;;17.50;5.95;;;;;;;;;;4994332;28;20093;-72
2021/05/23 08:43:53;;;;;;;10.27;4.15;;;;;;;;;;4994447;28;20033;-73
2021/05/23 08:46:20;;;;;;;12.82;4.50;;;;;;;;;;4993872;28;20057;-72
2021/05/23 08:48:48;;;;;;;9.98;5.25;;;;;;;;;;4993787;28;20025;-74
2021/05/23 08:51:15;;;;;;;21.13;12.20;;;;;;;;;;4994342;28;20052;-73
2021/05/23 08:53:44;;;;;;;23.40;13.10;;;;;;;;;;4993215;28;20042;-74
2021/05/23 08:56:11;;;;;;;24.33;11.63;;;;;;;;;;4994231;28;20036;-73
2021/05/23 08:58:38;;;;;;;16.52;8.95;;;;;;;;;;4993378;28;20029;-72
2021/05/23 09:01:06;;;;;;;13.35;6.43;;;;;;;;;;4995197;28;20041;-71
2021/05/23 09:03:33;;;;;;;17.25;10.48;;;;;;;;;;4991963;28;20033;-72
2021/05/23 09:06:00;;;;;;;13.50;8.45;;;;;;;;;;4989484;28;20108;-71
2021/05/23 09:08:28;;;;;;;15.15;8.25;;;;;;;;;;4993032;28;20033;-71
2021/05/23 09:11:00;;;;;;;13.20;6.28;;;;;;;;;;4990703;28;20033;-72
2021/05/23 09:13:28;;;;;;;16.90;9.52;;;;;;;;;;4992481;28;20037;-71
2021/05/23 09:16:06;;;;;;;25.80;16.80;;;;;;;;;;4993718;28;20077;-71
2021/05/23 09:18:40;;;;;;;20.10;11.50;;;;;;;;;;4994036;28;20157;-71
2021/05/23 09:21:08;;;;;;;18.00;13.18;;;;;;;;;;4995353;28;20034;-71
2021/05/23 09:23:45;;;;;;;32.50;23.60;;;;;;;;;;4992991;28;20026;-71
2021/05/23 09:26:23;;;;;;;28.92;22.00;;;;;;;;;;4991682;28;20023;-71
2021/05/23 09:28:50;;;;;;;17.67;12.27;;;;;;;;;;4993617;28;20033;-71
2021/05/23 09:31:18;;;;;;;33.78;20.13;;;;;;;;;;4994472;28;20423;-71
2021/05/23 09:34:03;;;;;;;12.20;7.75;;;;;;;;;;4993033;28;20019;-71
2021/05/23 09:36:31;;;;;;;13.63;5.95;;;;;;;;;;4993121;28;20050;-71
2021/05/23 09:38:59;;;;;;;13.15;6.93;;;;;;;;;;4994171;28;20102;-70
2021/05/23 09:41:30;;;;;;;12.90;8.20;;;;;;;;;;4993185;28;20398;-70
2021/05/23 09:44:10;;;;;;;18.10;7.20;;;;;;;;;;4989580;28;20031;-70
2021/05/23 09:46:37;;;;;;;10.95;3.75;;;;;;;;;;4993722;28;20019;-70
2021/05/23 09:49:04;;;;;;;10.50;3.03;;;;;;;;;;4994625;28;20505;-70
2021/05/23 09:51:32;;;;;;;8.45;2.17;;;;;;;;;;4977477;28;20042;-69
2021/05/23 09:54:00;;;;;;;6.15;1.73;;;;;;;;;;4995025;28;20037;-70
2021/05/23 09:56:32;;;;;;;8.75;2.78;;;;;;;;;;4977817;28;20062;-70
2021/05/23 09:58:59;;;;;;;8.18;1.80;;;;;;;;;;4992632;28;20102;-70
2021/05/23 10:01:28;;;;;;;8.15;2.10;;;;;;;;;;4991142;28;20033;-70
2021/05/23 10:04:00;;;;;;;12.68;2.85;;;;;;;;;;4993259;28;20029;-70
2021/05/23 10:06:33;;;;;;;11.40;4.28;;;;;;;;;;4986539;28;20038;-70
2021/05/23 10:09:01;;;;;;;11.13;4.10;;;;;;;;;;4977856;28;20383;-69
2021/05/23 10:11:28;;;;;;;8.32;3.30;;;;;;;;;;4994648;28;20034;-69
2021/05/23 10:13:55;;;;;;;12.23;3.08;;;;;;;;;;4994635;28;20026;-70
2021/05/23 10:16:23;;;;;;;9.77;3.50;;;;;;;;;;4976837;28;20043;-70
2021/05/23 10:18:50;;;;;;;12.85;4.32;;;;;;;;;;4994658;28;20058;-70
2021/05/23 10:21:17;;;;;;;10.75;3.78;;;;;;;;;;4993897;28;20131;-70
2021/05/23 10:23:55;;;;;;;10.38;4.30;;;;;;;;;;4993526;28;20029;-70
2021/05/23 10:26:25;;;;;;;10.05;3.65;;;;;;;;;;4985429;28;20029;-69
2021/05/23 10:28:53;;;;;;;11.65;3.20;;;;;;;;;;4994724;28;20035;-69
2021/05/23 10:31:34;;;;;;;12.07;3.58;;;;;;;;;;4994784;28;20454;-69
2021/05/23 10:34:01;;;;;;;11.20;4.00;;;;;;;;;;4976709;28;20487;-69
2021/05/23 10:36:38;;;;;;;10.48;4.07;;;;;;;;;;4976179;28;20046;-69
2021/05/23 10:39:16;;;;;;;11.68;4.80;;;;;;;;;;4993801;28;20030;-69
2021/05/23 10:41:44;;;;;;;10.48;4.57;;;;;;;;;;4994014;28;20022;-70
2021/05/23 10:44:12;;;;;;;12.73;4.68;;;;;;;;;;4993925;28;20161;-69
2021/05/23 10:46:46;;;;;;;12.25;5.63;;;;;;;;;;4993946;28;20050;-69
2021/05/23 10:49:13;;;;;;;16.77;5.45;;;;;;;;;;4993681;28;20034;-69
2021/05/23 10:51:51;;;;;;;9.82;4.85;;;;;;;;;;4994318;28;20026;-69
2021/05/23 10:54:18;;;;;;;16.05;5.25;;;;;;;;;;4992669;28;20534;-69
2021/05/23 10:56:45;;;;;;;14.38;6.22;;;;;;;;;;4993815;28;20022;-69
2021/05/23 10:59:14;;;;;;;13.20;5.70;;;;;;;;;;4993660;28;20377;-69
2021/05/23 11:01:54;;;;;;;12.52;6.30;;;;;;;;;;4986754;28;20042;-69
2021/05/23 11:04:24;;;;;;;16.05;7.60;;;;;;;;;;4988976;28;20399;-69
2021/05/23 11:06:51;;;;;;;16.98;8.02;;;;;;;;;;4995010;28;20498;-69
2021/05/23 11:09:24;;;;;;;17.33;7.45;;;;;;;;;;4994265;28;20395;-69
2021/05/23 11:11:51;;;;;;;12.57;6.03;;;;;;;;;;4993583;28;20035;-70
2021/05/23 11:14:19;;;;;;;15.98;8.25;;;;;;;;;;4990310;28;20057;-69
2021/05/23 11:16:50;;;;;;;16.75;9.07;;;;;;;;;;4993527;28;20037;-69
2021/05/23 11:19:18;;;;;;;16.58;6.97;;;;;;;;;;4993415;28;20023;-69
2021/05/23 11:21:46;;;;;;;16.13;5.80;;;;;;;;;;4992726;28;20088;-69
2021/05/23 11:24:14;;;;;;;13.57;5.50;;;;;;;;;;4992688;28;20025;-69
2021/05/23 11:26:41;;;;;;;11.57;5.68;;;;;;;;;;4974156;28;20039;-68
2021/05/23 11:29:09;;;;;;;11.68;5.63;;;;;;;;;;4992101;28;20018;-69
2021/05/23 11:31:41;;;;;;;8.00;5.40;;;;;;;;;;4992752;28;20105;-68
2021/05/23 11:34:09;;;;;;;13.27;4.65;;;;;;;;;;4993264;28;20106;-68
2021/05/23 11:36:37;;;;;;;14.98;4.85;;;;;;;;;;4974956;28;20066;-68
2021/05/23 11:39:08;;;;;;;11.57;4.55;;;;;;;;;;4992097;28;20030;-68
2021/05/23 11:41:40;;;;;;;11.20;5.15;;;;;;;;;;4991851;28;20113;-68
2021/05/23 11:44:10;;;;;;;13.93;4.93;;;;;;;;;;4990540;28;20030;-67
2021/05/23 11:46:39;;;;;;;10.13;4.75;;;;;;;;;;4985981;28;20125;-68
2021/05/23 11:49:06;;;;;;;11.05;4.65;;;;;;;;;;4972049;28;20030;-68
2021/05/23 11:51:34;;;;;;;11.05;5.60;;;;;;;;;;4991190;28;20031;-68
2021/05/23 11:54:02;;;;;;;11.88;4.90;;;;;;;;;;4990750;28;20400;-68
2021/05/23 11:56:34;;;;;;;15.32;4.70;;;;;;;;;;4989316;28;20029;-68
2021/05/23 11:59:02;;;;;;;9.90;4.57;;;;;;;;;;4992283;28;20433;-69
2021/05/23 12:01:33;;;;;;;15.85;4.97;;;;;;;;;;4991147;28;20026;-69
2021/05/23 12:04:05;;;;;;;12.75;5.00;;;;;;;;;;4991891;28;20038;-70
2021/05/23 12:06:43;;;;;;;14.77;6.10;;;;;;;;;;4991551;28;20429;-69
2021/05/23 12:09:10;;;;;;;10.27;4.47;;;;;;;;;;4990662;28;20030;-69
2021/05/23 12:11:39;;;;;;;10.05;4.60;;;;;;;;;;4990383;28;20117;-69
2021/05/23 12:14:06;;;;;;;10.75;4.50;;;;;;;;;;4991553;28;20102;-68
2021/05/23 12:16:33;;;;;;;9.45;4.55;;;;;;;;;;4990498;28;20100;-68
2021/05/23 12:19:01;;;;;;;9.80;3.78;;;;;;;;;;4989211;28;20149;-69
2021/05/23 12:21:31;;;;;;;16.67;5.13;;;;;;;;;;4991772;28;20085;-69
2021/05/23 12:23:59;;;;;;;11.40;3.75;;;;;;;;;;4992062;28;20029;-69
2021/05/23 12:26:26;;;;;;;10.07;4.85;;;;;;;;;;4992352;28;20104;-68
2021/05/23 12:28:54;;;;;;;10.05;4.05;;;;;;;;;;4991796;28;20026;-69
2021/05/23 12:31:22;;;;;;;10.93;4.53;;;;;;;;;;4990837;28;20475;-69
2021/05/23 12:33:54;;;;;;;10.23;4.60;;;;;;;;;;4992328;28;20026;-68
2021/05/23 12:36:22;;;;;;;9.57;4.05;;;;;;;;;;4991708;28;20038;-68
2021/05/23 12:38:55;;;;;;;10.52;3.85;;;;;;;;;;4992298;28;20019;-69
2021/05/23 12:41:22;;;;;;;12.27;4.75;;;;;;;;;;4988131;28;20026;-68
2021/05/23 12:43:49;;;;;;;10.43;4.47;;;;;;;;;;4988667;28;20054;-68
2021/05/23 12:46:16;;;;;;;8.82;3.97;;;;;;;;;;4992242;28;20025;-69
2021/05/23 12:48:45;;;;;;;11.90;4.15;;;;;;;;;;4993760;28;20081;-69
2021/05/23 12:51:17;;;;;;;8.48;2.90;;;;;;;;;;4991846;28;20089;-68
2021/05/23 12:53:45;;;;;;;6.32;2.80;;;;;;;;;;4977010;28;20045;-69
2021/05/23 12:56:21;;;;;;;7.13;3.33;;;;;;;;;;4995655;28;20165;-69
2021/05/23 12:58:50;;;;;;;7.40;3.25;;;;;;;;;;4995481;28;20029;-69
2021/05/23 13:01:19;;;;;;;12.32;4.03;;;;;;;;;;4995061;28;20034;-68
2021/05/23 13:03:54;;;;;;;8.80;3.03;;;;;;;;;;4994864;28;20502;-69
2021/05/23 13:06:20;;;;;;;;;;;;;;;;;;4996188;28;20146;-69
2021/05/23 13:08:56;;;;;;;5.60;2.72;;;;;;;;;;4995135;28;19910;-69
2021/05/23 13:11:23;;;;;;;7.55;3.38;;;;;;;;;;4976815;28;20030;-69
2021/05/23 13:13:51;;;;;;;6.28;2.80;;;;;;;;;;4995147;28;20033;-68
2021/05/23 13:16:18;;;;;;;10.50;2.80;;;;;;;;;;4995137;28;20027;-69
2021/05/23 13:18:47;;;;;;;10.02;3.78;;;;;;;;;;4995389;28;20027;-68
2021/05/23 13:21:16;;;;;;;5.82;3.03;;;;;;;;;;4995082;28;20682;-68
2021/05/23 13:23:45;;;;;;;12.25;3.95;;;;;;;;;;4994633;28;20066;-69
2021/05/23 13:26:19;;;;;;;12.13;3.53;;;;;;;;;;4987322;28;20106;-68
2021/05/23 13:28:46;;;;;;;10.05;3.08;;;;;;;;;;4975999;28;20022;-69
2021/05/23 13:31:15;;;;;;;14.43;3.70;;;;;;;;;;4989344;28;20035;-68
2021/05/23 13:33:42;;;;;;;10.35;3.58;;;;;;;;;;4995002;28;20054;-69
2021/05/23 13:36:14;;;;;;;11.00;3.53;;;;;;;;;;4991763;28;20043;-68
2021/05/23 13:38:41;;;;;;;7.97;4.25;;;;;;;;;;4994546;28;20023;-69
2021/05/23 13:41:09;;;;;;;12.38;3.70;;;;;;;;;;4994674;28;20058;-68
2021/05/23 13:43:36;;;;;;;8.32;3.95;;;;;;;;;;4993337;28;20033;-69
2021/05/23 13:46:04;;;;;;;10.88;3.03;;;;;;;;;;4991151;28;20042;-68
2021/05/23 13:48:31;;;;;;;10.40;4.07;;;;;;;;;;4994949;28;20026;-68
2021/05/23 13:50:58;;;;;;;9.88;3.47;;;;;;;;;;4994598;28;20030;-69
2021/05/23 13:53:25;;;;;;;15.70;4.55;;;;;;;;;;4994519;28;20469;-68
2021/05/23 13:55:52;;;;;;;9.90;3.30;;;;;;;;;;4994185;28;20093;-68
2021/05/23 13:58:19;;;;;;;12.55;3.80;;;;;;;;;;4990265;28;20026;-68
2021/05/23 14:00:46;;;;;;;7.97;3.35;;;;;;;;;;4993103;28;20026;-69
2021/05/23 14:03:21;;;;;;;11.45;3.58;;;;;;;;;;4994496;28;20034;-68
2021/05/23 14:05:49;;;;;;;10.13;3.65;;;;;;;;;;4994850;28;20015;-68
2021/05/23 14:08:17;;;;;;;8.73;2.80;;;;;;;;;;4994116;28;20034;-69
2021/05/23 14:10:44;;;;;;;8.25;3.80;;;;;;;;;;4993802;28;20059;-68
2021/05/23 14:13:11;;;;;;;12.07;4.18;;;;;;;;;;4994074;28;20101;-69
2021/05/23 14:15:38;;;;;;;7.47;2.92;;;;;;;;;;4993828;28;20113;-69
2021/05/23 14:18:06;;;;;;;8.82;3.50;;;;;;;;;;4993822;28;20106;-68
2021/05/23 14:20:34;;;;;;;8.18;2.97;;;;;;;;;;4993995;28;20026;-68
2021/05/23 14:23:03;;;;;;;9.52;3.15;;;;;;;;;;4993677;28;20018;-68
2021/05/23 14:25:31;;;;;;;9.00;3.03;;;;;;;;;;4993689;28;20030;-68
2021/05/23 14:27:58;;;;;;;7.28;3.20;;;;;;;;;;4993609;28;20037;-69
2021/05/23 14:30:26;;;;;;;9.85;3.05;;;;;;;;;;4980483;28;20486;-68
2021/05/23 14:32:53;;;;;;;13.57;3.45;;;;;;;;;;4974414;28;20372;-68
2021/05/23 14:35:20;;;;;;;7.45;3.10;;;;;;;;;;4975872;28;20030;-68
2021/05/23 14:37:48;;;;;;;9.95;3.17;;;;;;;;;;4974584;28;20019;-68
2021/05/23 14:40:16;;;;;;;7.93;3.15;;;;;;;;;;4987347;28;20018;-68
2021/05/23 14:42:44;;;;;;;9.55;2.88;;;;;;;;;;4993333;28;20061;-68